createdAt,value
2022-08-17T00:00:43.402Z,63.14
2022-08-17T00:03:41.915Z,64.51
2022-08-17T00:06:36.803Z,63.29
2022-08-17T00:09:25.694Z,64.86
2022-08-17T00:12:41.620Z,63.85
2022-08-17T00:15:24.065Z,64.63
2022-08-17T00:18:58.300Z,63.97
2022-08-17T00:21:23.772Z,65.25
2022-08-17T00:24:07.076Z,64.67
2022-08-17T00:26:55.783Z,64.57
2022-08-17T00:29:38.813Z,65.17
2022-08-17T00:33:11.611Z,65.24
2022-08-17T00:35:38.683Z,64.20
2022-08-17T00:38:28.213Z,64.62
2022-08-17T00:41:16.713Z,65.64
2022-08-17T00:44:19.670Z,65.94
2022-08-17T00:47:08.692Z,66.38
2022-08-17T00:49:51.141Z,65.59
2022-08-17T00:52:44.942Z,65.81
2022-08-17T00:55:28.353Z,66.22
2022-08-17T00:58:18.037Z,65.08
2022-08-17T01:01:21.689Z,65.21
2022-08-17T01:04:13.084Z,65.60
2022-08-17T01:06:57.106Z,65.16
2022-08-17T01:09:46.100Z,65.41
2022-08-17T01:12:29.676Z,65.54
2022-08-17T01:15:20.102Z,66.11
2022-08-17T01:18:02.097Z,65.82
2022-08-17T01:20:59.021Z,66.50
2022-08-17T01:23:49.968Z,66.25
2022-08-17T01:26:40.933Z,66.99
2022-08-17T01:29:24.812Z,67.00
2022-08-17T01:32:15.723Z,67.46
2022-08-17T01:34:58.175Z,66.84
2022-08-17T01:37:48.930Z,66.81
2022-08-17T01:40:40.186Z,66.83
2022-08-17T01:43:35.785Z,67.51
2022-08-17T01:46:29.681Z,66.48
2022-08-17T01:49:21.035Z,65.58
2022-08-17T01:52:04.309Z,66.16
2022-08-17T01:54:55.034Z,66.86
2022-08-17T01:57:37.331Z,65.84
2022-08-17T02:00:27.130Z,66.83
2022-08-17T02:03:31.121Z,65.42
2022-08-17T02:06:27.602Z,65.33
2022-08-17T02:09:12.208Z,66.01
2022-08-17T02:12:38.043Z,65.00
2022-08-17T02:15:18.060Z,64.94
2022-08-17T02:18:06.792Z,65.56
2022-08-17T02:20:56.693Z,67.63
2022-08-17T02:23:49.075Z,65.57
2022-08-17T02:26:31.031Z,63.11
2022-08-17T02:29:20.075Z,60.19
2022-08-17T02:32:02.592Z,61.00
2022-08-17T02:34:50.803Z,60.28
2022-08-17T02:37:34.249Z,57.04
2022-08-17T02:40:32.838Z,59.97
2022-08-17T02:43:18.307Z,58.47
2022-08-17T02:46:13.029Z,56.64
2022-08-17T02:49:01.788Z,58.26
2022-08-17T02:51:44.134Z,59.58
2022-08-17T02:54:40.267Z,62.48
2022-08-17T02:57:31.460Z,60.61
2022-08-17T03:00:18.499Z,62.11
2022-08-17T03:03:08.066Z,61.10
2022-08-17T03:05:54.476Z,63.03
2022-08-17T03:08:42.793Z,62.36
2022-08-17T03:11:25.234Z,61.78
2022-08-17T03:14:13.777Z,62.94
2022-08-17T03:16:55.981Z,61.91
2022-08-17T03:19:44.947Z,62.58
2022-08-17T03:22:38.245Z,61.46
2022-08-17T03:25:27.110Z,62.71
2022-08-17T03:28:16.927Z,61.98
2022-08-17T03:30:59.899Z,63.67
2022-08-17T03:33:49.032Z,62.81
2022-08-17T03:36:31.113Z,62.72
2022-08-17T03:39:25.050Z,62.79
2022-08-17T03:42:32.085Z,62.47
2022-08-17T03:45:25.041Z,63.88
2022-08-17T03:48:25.805Z,62.42
2022-08-17T03:51:33.578Z,63.65
2022-08-17T03:54:34.403Z,63.32
2022-08-17T03:57:22.776Z,62.49
2022-08-17T04:00:05.717Z,62.54
2022-08-17T04:02:55.036Z,60.96
2022-08-17T04:05:37.346Z,60.52
2022-08-17T04:08:25.781Z,60.41
2022-08-17T04:11:09.069Z,60.64
2022-08-17T04:13:57.776Z,59.44
2022-08-17T04:16:42.059Z,59.12
2022-08-17T04:19:31.041Z,58.65
2022-08-17T04:22:30.508Z,59.28
2022-08-17T04:25:27.078Z,59.29
2022-08-17T04:28:16.204Z,58.47
2022-08-17T04:31:04.817Z,56.59
2022-08-17T04:33:49.337Z,55.20
2022-08-17T04:36:37.759Z,55.19
2022-08-17T04:39:27.057Z,56.13
2022-08-17T04:42:17.943Z,53.17
2022-08-17T04:45:06.840Z,52.39
2022-08-17T04:47:56.291Z,53.63
2022-08-17T04:50:38.037Z,54.37
2022-08-17T04:53:20.954Z,52.99
2022-08-17T04:56:11.638Z,51.74
2022-08-17T04:59:09.574Z,50.66
2022-08-17T05:01:59.689Z,52.26
2022-08-17T05:04:48.685Z,52.17
2022-08-17T05:07:38.008Z,52.33
2022-08-17T05:10:20.974Z,51.27
2022-08-17T05:13:17.444Z,50.88
2022-08-17T05:16:08.775Z,51.39
2022-08-17T05:18:50.955Z,52.30
2022-08-17T05:21:39.926Z,54.21
2022-08-17T05:24:42.879Z,52.63
2022-08-17T05:27:32.877Z,51.66
2022-08-17T05:30:17.203Z,51.23
2022-08-17T05:33:09.000Z,51.56
2022-08-17T05:35:54.364Z,50.26
2022-08-17T05:38:42.778Z,53.23
2022-08-17T05:41:25.046Z,50.09
2022-08-17T05:44:14.105Z,49.99
2022-08-17T05:47:03.200Z,53.29
2022-08-17T05:49:44.791Z,52.06
2022-08-17T05:52:49.293Z,51.05
2022-08-17T05:55:47.050Z,51.37
2022-08-17T05:58:46.372Z,51.18
2022-08-17T06:01:58.037Z,51.76
2022-08-17T06:05:17.348Z,52.79
2022-08-17T06:08:14.070Z,53.24
2022-08-17T06:11:17.216Z,54.96
2022-08-17T06:14:27.780Z,51.73
2022-08-17T06:17:22.903Z,51.54
2022-08-17T06:20:14.927Z,51.28
2022-08-17T06:23:05.120Z,51.35
2022-08-17T06:26:08.932Z,51.49
2022-08-17T06:29:03.895Z,52.19
2022-08-17T06:31:57.793Z,51.77
2022-08-17T06:34:41.170Z,51.63
2022-08-17T06:38:34.963Z,52.19
2022-08-17T06:41:38.839Z,51.48
2022-08-17T06:44:43.508Z,51.16
2022-08-17T06:47:49.928Z,53.45
2022-08-17T06:50:51.334Z,52.24
2022-08-17T06:53:52.793Z,51.34
2022-08-17T06:56:55.467Z,51.27
2022-08-17T06:59:55.456Z,51.60
2022-08-17T07:03:32.693Z,52.36
2022-08-17T07:06:25.302Z,53.92
2022-08-17T07:09:45.774Z,54.42
2022-08-17T07:12:44.924Z,53.62
2022-08-17T07:15:46.699Z,51.83
2022-08-17T07:18:39.148Z,52.60
2022-08-17T07:21:56.774Z,54.36
2022-08-17T07:24:50.061Z,53.52
2022-08-17T07:27:44.942Z,53.47
2022-08-17T07:30:30.063Z,54.04
2022-08-17T07:33:25.939Z,53.91
2022-08-17T07:36:08.060Z,54.14
2022-08-17T07:39:06.006Z,52.45
2022-08-17T07:41:59.102Z,52.82
2022-08-17T07:45:02.038Z,54.38
2022-08-17T07:48:24.639Z,54.61
2022-08-17T07:51:35.752Z,54.59
2022-08-17T07:54:24.117Z,55.11
2022-08-17T07:57:24.366Z,54.93
2022-08-17T08:00:16.227Z,54.38
2022-08-17T08:03:36.759Z,53.93
2022-08-17T08:06:32.315Z,53.25
2022-08-17T08:09:37.107Z,52.67
2022-08-17T08:12:48.300Z,54.15
2022-08-17T08:15:57.009Z,55.00
2022-08-17T08:18:55.506Z,54.21
2022-08-17T08:22:00.016Z,54.65
2022-08-17T08:24:45.313Z,53.38
2022-08-17T08:27:46.028Z,54.89
2022-08-17T08:30:29.545Z,53.45
2022-08-17T08:33:57.019Z,54.09
2022-08-17T08:37:17.792Z,55.45
2022-08-17T08:41:06.019Z,55.76
2022-08-17T08:44:04.666Z,55.21
2022-08-17T08:47:03.016Z,54.08
2022-08-17T08:50:37.524Z,55.55
2022-08-17T08:53:51.061Z,55.38
2022-08-17T08:57:11.534Z,56.27
2022-08-17T09:00:13.035Z,56.43
2022-08-17T09:03:28.088Z,54.66
2022-08-17T09:06:49.773Z,55.78
2022-08-17T09:09:59.993Z,56.27
2022-08-17T09:13:09.495Z,55.65
2022-08-17T09:16:06.930Z,55.58
2022-08-17T09:19:03.865Z,56.60
2022-08-17T09:22:00.671Z,56.35
2022-08-17T09:25:24.032Z,56.31
2022-08-17T09:28:14.204Z,56.01
2022-08-17T09:31:11.824Z,58.05
2022-08-17T09:33:59.428Z,56.00
2022-08-17T09:37:03.781Z,53.48
2022-08-17T09:40:23.909Z,53.54
2022-08-17T09:43:24.687Z,53.33
2022-08-17T09:46:38.980Z,54.33
2022-08-17T09:49:41.677Z,54.16
2022-08-17T09:52:35.320Z,55.30
2022-08-17T09:55:23.913Z,54.56
2022-08-17T09:58:28.967Z,53.63
2022-08-17T10:01:44.059Z,53.60
2022-08-17T10:05:06.029Z,53.22
2022-08-17T10:08:07.013Z,53.06
2022-08-17T10:11:10.049Z,53.50
2022-08-17T10:14:36.228Z,53.87
2022-08-17T10:17:19.305Z,53.04
2022-08-17T10:20:12.008Z,54.65
2022-08-17T10:23:25.925Z,53.22
2022-08-17T10:26:22.755Z,53.87
2022-08-17T10:29:14.299Z,54.13
2022-08-17T10:32:18.762Z,53.61
2022-08-17T10:35:21.233Z,55.31
2022-08-17T10:38:41.937Z,54.77
2022-08-17T10:41:45.357Z,54.92
2022-08-17T10:44:46.681Z,55.09
2022-08-17T10:48:15.669Z,55.30
2022-08-17T10:51:10.919Z,55.91
2022-08-17T10:54:09.856Z,56.60
2022-08-17T10:57:06.009Z,56.13
2022-08-17T10:59:48.736Z,54.71
2022-08-17T11:02:56.672Z,57.03
2022-08-17T11:06:03.172Z,55.60
2022-08-17T11:09:12.917Z,55.82
2022-08-17T11:12:22.095Z,56.16
2022-08-17T11:15:32.023Z,56.11
2022-08-17T11:18:29.071Z,56.13
2022-08-17T11:21:18.028Z,55.89
2022-08-17T11:24:36.209Z,57.96
2022-08-17T11:27:38.029Z,57.07
2022-08-17T11:30:43.492Z,57.25
2022-08-17T11:34:06.821Z,57.09
2022-08-17T11:37:24.873Z,56.16
2022-08-17T11:40:25.248Z,56.69
2022-08-17T11:43:17.933Z,56.43
2022-08-17T11:46:29.737Z,56.03
2022-08-17T11:50:02.284Z,56.58
2022-08-17T11:53:02.810Z,58.47
2022-08-17T11:55:51.475Z,58.43
2022-08-17T11:58:53.062Z,58.34
2022-08-17T12:01:56.838Z,57.67
2022-08-17T12:04:48.078Z,58.10
2022-08-17T12:07:33.458Z,57.51
2022-08-17T12:10:25.037Z,57.66
2022-08-17T12:13:19.302Z,57.47
2022-08-17T12:16:02.021Z,56.12
2022-08-17T12:19:20.885Z,57.70
2022-08-17T12:22:30.020Z,57.48
2022-08-17T12:25:40.337Z,56.83
2022-08-17T12:28:46.109Z,57.99
2022-08-17T12:31:45.776Z,58.28
2022-08-17T12:35:01.781Z,58.07
2022-08-17T12:37:48.532Z,57.62
2022-08-17T12:40:41.678Z,57.71
2022-08-17T12:43:34.444Z,57.52
2022-08-17T12:46:26.013Z,57.24
2022-08-17T12:49:31.657Z,56.93
2022-08-17T12:52:35.691Z,57.70
2022-08-17T12:55:37.625Z,58.19
2022-08-17T12:58:38.936Z,58.56
2022-08-17T13:01:26.179Z,58.11
2022-08-17T13:04:14.886Z,58.21
2022-08-17T13:06:59.921Z,57.42
2022-08-17T13:09:57.997Z,58.04
2022-08-17T13:12:49.925Z,56.70
2022-08-17T13:15:50.641Z,55.64
2022-08-17T13:18:56.779Z,56.07
2022-08-17T13:21:45.185Z,56.87
2022-08-17T13:24:42.712Z,55.29
2022-08-17T13:27:35.015Z,55.37
2022-08-17T13:30:20.583Z,56.22
2022-08-17T13:33:12.000Z,56.02
2022-08-17T13:36:04.986Z,56.21
2022-08-17T13:38:55.179Z,56.68
2022-08-17T13:41:43.672Z,56.59
2022-08-17T13:44:40.031Z,58.26
2022-08-17T13:47:34.691Z,57.88
2022-08-17T13:50:30.018Z,57.26
2022-08-17T13:53:33.174Z,59.37
2022-08-17T13:56:39.536Z,58.41
2022-08-17T13:59:53.106Z,58.72
2022-08-17T14:02:42.749Z,59.63
2022-08-17T14:05:32.031Z,60.05
2022-08-17T14:08:14.226Z,59.40
2022-08-17T14:11:06.785Z,59.28
2022-08-17T14:13:56.024Z,57.91
2022-08-17T14:16:48.691Z,60.14
2022-08-17T14:19:31.979Z,59.75
2022-08-17T14:22:31.661Z,59.91
2022-08-17T14:25:15.967Z,59.65
2022-08-17T14:28:05.783Z,59.96
2022-08-17T14:30:49.020Z,59.01
2022-08-17T14:33:38.043Z,60.52
2022-08-17T14:36:20.460Z,60.66
2022-08-17T14:39:09.062Z,60.73
2022-08-17T14:42:00.964Z,61.25
2022-08-17T14:44:50.043Z,61.55
2022-08-17T14:47:38.950Z,61.72
2022-08-17T14:50:28.850Z,62.08
2022-08-17T14:53:13.063Z,60.04
2022-08-17T14:56:09.121Z,62.28
2022-08-17T14:59:03.914Z,61.66
2022-08-17T15:01:55.057Z,62.16
2022-08-17T15:04:45.737Z,63.08
2022-08-17T15:07:30.755Z,62.25
2022-08-17T15:10:20.764Z,62.76
2022-08-17T15:13:10.085Z,61.49
2022-08-17T15:15:52.355Z,62.61
2022-08-17T15:18:43.618Z,63.20
2022-08-17T15:21:24.922Z,63.19
2022-08-17T15:24:14.102Z,62.81
2022-08-17T15:26:56.527Z,62.74
2022-08-17T15:29:45.288Z,62.44
2022-08-17T15:32:39.255Z,62.19
2022-08-17T15:35:28.976Z,62.35
2022-08-17T15:38:15.221Z,62.69
2022-08-17T15:41:05.690Z,63.37
2022-08-17T15:43:54.761Z,61.97
2022-08-17T15:46:38.264Z,62.77
2022-08-17T15:49:27.979Z,62.28
2022-08-17T15:52:48.102Z,62.45
2022-08-17T15:55:31.667Z,62.60
2022-08-17T15:58:21.068Z,63.35
2022-08-17T16:02:16.269Z,61.97
2022-08-17T16:04:31.662Z,63.71
2022-08-17T16:07:13.973Z,62.82
2022-08-17T16:10:04.677Z,64.32
2022-08-17T16:12:54.931Z,64.80
2022-08-17T16:15:37.313Z,64.73
2022-08-17T16:18:26.007Z,64.47
2022-08-17T16:21:43.203Z,64.76
2022-08-17T16:24:32.013Z,64.38
2022-08-17T16:27:14.528Z,64.29
2022-08-17T16:30:02.738Z,64.40
2022-08-17T16:32:51.976Z,64.71
2022-08-17T16:35:34.153Z,64.92
2022-08-17T16:38:22.663Z,65.67
2022-08-17T16:41:13.820Z,65.09
2022-08-17T16:44:02.672Z,65.58
2022-08-17T16:46:52.789Z,66.63
2022-08-17T16:49:37.332Z,66.02
2022-08-17T16:52:33.964Z,66.55
2022-08-17T16:55:18.329Z,65.98
2022-08-17T16:58:12.685Z,66.13
2022-08-17T17:01:01.200Z,66.47
2022-08-17T17:03:48.021Z,67.00
2022-08-17T17:06:46.934Z,66.35
2022-08-17T17:09:43.909Z,66.06
2022-08-17T17:13:02.041Z,66.30
2022-08-17T17:16:12.999Z,68.09
2022-08-17T17:19:34.398Z,67.21
2022-08-17T17:22:23.792Z,68.48
2022-08-17T17:25:35.000Z,68.35
2022-08-17T17:28:23.991Z,69.03
2022-08-17T17:31:47.039Z,70.18
2022-08-17T17:34:30.006Z,69.65
2022-08-17T17:37:28.080Z,69.61
2022-08-17T17:40:17.047Z,69.69
2022-08-17T17:43:20.496Z,71.71
2022-08-17T17:46:28.512Z,72.46
2022-08-17T17:49:15.449Z,71.31
2022-08-17T17:52:19.594Z,72.39
2022-08-17T17:55:26.999Z,71.70
2022-08-17T17:58:48.881Z,70.54
2022-08-17T18:02:07.969Z,70.86
2022-08-17T18:05:09.820Z,70.54
2022-08-17T18:08:35.288Z,70.24
2022-08-17T18:11:33.088Z,69.92
2022-08-17T18:14:39.450Z,69.56
2022-08-17T18:17:27.782Z,69.17
2022-08-17T18:20:12.049Z,68.97
2022-08-17T18:23:00.751Z,69.28
2022-08-17T18:25:49.169Z,69.37
2022-08-17T18:28:50.733Z,70.05
2022-08-17T18:31:34.170Z,69.67
2022-08-17T18:34:46.581Z,69.79
2022-08-17T18:37:37.421Z,68.92
2022-08-17T18:40:25.976Z,68.92
2022-08-17T18:43:53.103Z,69.74
2022-08-17T18:46:44.178Z,69.19
2022-08-17T18:49:34.648Z,69.27
2022-08-17T18:52:39.829Z,69.67
2022-08-17T18:55:22.042Z,69.04
2022-08-17T18:58:28.006Z,70.27
2022-08-17T19:01:41.930Z,69.42
2022-08-17T19:04:37.678Z,70.12
2022-08-17T19:07:35.732Z,68.92
2022-08-17T19:10:46.952Z,69.41
2022-08-17T19:14:11.978Z,70.59
2022-08-17T19:17:00.035Z,69.46
2022-08-17T19:20:11.341Z,69.25
2022-08-17T19:23:13.381Z,68.43
2022-08-17T19:26:00.970Z,69.82
2022-08-17T19:29:00.992Z,70.59
2022-08-17T19:31:42.923Z,70.26
2022-08-17T19:34:34.481Z,70.92
2022-08-17T19:37:43.116Z,70.54
2022-08-17T19:41:00.934Z,70.72
2022-08-17T19:44:01.141Z,70.84
2022-08-17T19:47:36.677Z,69.94
2022-08-17T19:50:54.252Z,70.43
2022-08-17T19:54:07.155Z,69.84
2022-08-17T19:57:15.759Z,68.97
2022-08-17T20:00:20.903Z,69.67
2022-08-17T20:03:27.868Z,69.12
2022-08-17T20:06:19.986Z,69.47
2022-08-17T20:09:18.993Z,69.29
2022-08-17T20:12:18.728Z,69.29
2022-08-17T20:15:11.096Z,68.64
2022-08-17T20:18:00.998Z,68.81
2022-08-17T20:21:19.862Z,68.81
2022-08-17T20:24:34.328Z,68.30
2022-08-17T20:27:31.294Z,68.54
2022-08-17T20:30:45.002Z,68.78
2022-08-17T20:33:45.013Z,68.79
2022-08-17T20:36:33.997Z,68.68
2022-08-17T20:39:41.412Z,68.66
2022-08-17T20:42:29.993Z,68.70
2022-08-17T20:45:36.900Z,68.18
2022-08-17T20:48:38.658Z,67.81
2022-08-17T20:52:01.688Z,68.40
2022-08-17T20:54:55.147Z,68.91
2022-08-17T20:57:47.016Z,68.72
2022-08-17T21:00:39.036Z,68.62
2022-08-17T21:03:49.104Z,68.53
2022-08-17T21:06:33.202Z,68.30
2022-08-17T21:09:27.750Z,67.92
2022-08-17T21:12:10.529Z,67.73
2022-08-17T21:15:37.747Z,67.96
2022-08-17T21:18:26.766Z,68.17
2022-08-17T21:21:33.805Z,68.04
2022-08-17T21:24:34.084Z,67.96
2022-08-17T21:27:36.999Z,68.87
2022-08-17T21:30:55.615Z,68.94
2022-08-17T21:33:48.002Z,69.25
2022-08-17T21:36:29.968Z,69.52
2022-08-17T21:39:23.991Z,69.05
2022-08-17T21:42:14.220Z,68.61
2022-08-17T21:45:05.718Z,69.03
2022-08-17T21:47:53.151Z,69.45
2022-08-17T21:50:42.001Z,69.41
2022-08-17T21:53:37.423Z,69.17
2022-08-17T21:56:34.992Z,69.96
2022-08-17T21:59:26.915Z,69.60
2022-08-17T22:02:13.733Z,69.36
2022-08-17T22:05:16.875Z,70.42
2022-08-17T22:08:16.685Z,69.32
2022-08-17T22:11:16.027Z,69.26
2022-08-17T22:14:05.991Z,69.42
2022-08-17T22:16:49.735Z,70.51
2022-08-17T22:19:39.307Z,70.18
2022-08-17T22:22:35.887Z,69.95
2022-08-17T22:25:29.776Z,69.69
2022-08-17T22:28:18.013Z,70.24
2022-08-17T22:31:14.627Z,70.05
2022-08-17T22:34:17.598Z,70.49
2022-08-17T22:37:28.864Z,69.98
2022-08-17T22:40:11.097Z,69.93
2022-08-17T22:43:00.736Z,70.24
2022-08-17T22:45:52.510Z,70.32
2022-08-17T22:48:40.636Z,71.38
2022-08-17T22:51:30.339Z,71.38
2022-08-17T22:54:44.990Z,71.03
2022-08-17T22:57:47.454Z,71.66
2022-08-17T23:00:47.629Z,70.76
2022-08-17T23:03:42.839Z,70.66
2022-08-17T23:06:41.924Z,70.72
2022-08-17T23:09:37.829Z,71.06
2022-08-17T23:12:34.989Z,71.01
2022-08-17T23:15:27.907Z,71.38
2022-08-17T23:18:10.657Z,71.37
2022-08-17T23:21:00.002Z,71.40
2022-08-17T23:23:42.077Z,71.79
2022-08-17T23:26:37.662Z,71.59
2022-08-17T23:29:22.329Z,72.03
2022-08-17T23:32:06.715Z,71.44
2022-08-17T23:34:58.711Z,72.25
2022-08-17T23:37:49.006Z,71.95
2022-08-17T23:40:31.279Z,72.19
2022-08-17T23:43:25.228Z,72.24
2022-08-17T23:46:15.737Z,72.42
2022-08-17T23:48:57.844Z,72.99
2022-08-17T23:51:51.729Z,72.49
2022-08-17T23:54:44.620Z,72.76
2022-08-17T23:57:36.218Z,72.97
